Time;durP1;ratioP1;P1;durP2;ratioP2;P2;SDS_P1;SDS_P2;PMS_P1;PMS_P2;Temp;Humidity;BMP_temperature;BMP_pressure;BME280_temperature;BME280_humidity;BME280_pressure;Samples;Min_cycle;Max_cycle;Signal;HPM_P1;HPM_P2
2024/01/18 00:05:29;407152.00;1.36;702.10;0.00;0.00;0.62;;;;;12.50;1.00;;;;;;2309675;56;3819;-90
2024/01/18 00:12:56;151147.00;0.50;261.78;0.00;0.00;0.62;;;;;12.60;1.00;;;;;;2274850;61;1328;-89
2024/01/18 00:15:22;71689.00;0.24;124.68;0.00;0.00;0.62;;;;;12.70;1.00;;;;;;2273268;61;799;-90
2024/01/18 01:01:42;236816.00;0.79;409.27;0.00;0.00;0.62;;;;;13.50;1.00;;;;;;884899;56;3557;-90
2024/01/18 02:08:48;328061.00;1.09;566.15;0.00;0.00;0.62;;;;;12.60;1.00;;;;;;868974;56;3599;-89
2024/01/18 02:31:09;118188064.00;393.96;66873980.00;0.00;0.00;0.62;;;;;12.00;1.00;;;;;;2274418;61;1306;-91
2024/01/18 03:05:57;955046.00;3.18;1653.01;130669.00;0.44;226.48;;;;;12.70;1.00;;;;;;2274287;61;1360;-87
2024/01/18 03:08:24;599851.00;2.00;1033.96;84793.00;0.28;147.32;;;;;12.80;1.00;;;;;;2275377;55;3748;-89
2024/01/18 03:10:50;560134.00;1.87;965.43;89105.00;0.30;154.76;;;;;12.80;1.00;;;;;;2277455;61;1283;-88
2024/01/18 03:13:17;449862.00;1.50;775.55;82330.00;0.27;143.06;;;;;12.70;1.00;;;;;;2277388;61;1106;-87
2024/01/18 03:15:44;814227.00;2.71;1405.95;87961.00;0.29;152.79;;;;;12.60;1.00;;;;;;2277416;61;1567;-90
2024/01/18 03:18:11;630176.00;2.10;1086.35;86909.00;0.29;150.97;;;;;12.40;1.00;;;;;;2277384;61;927;-88
2024/01/18 03:20:38;587678.00;1.96;1012.95;90306.00;0.30;156.84;;;;;12.50;1.00;;;;;;2276777;61;2008;-88
2024/01/18 03:23:06;526255.00;1.75;907.04;95605.00;0.32;165.99;;;;;12.80;1.00;;;;;;2276796;61;1686;-88
2024/01/18 03:25:33;505143.00;1.68;870.68;89636.00;0.30;155.68;;;;;12.80;1.00;;;;;;2276868;61;922;-89
2024/01/18 03:28:00;706223.00;2.35;1218.03;119530.00;0.40;207.27;;;;;12.80;1.00;;;;;;2276811;61;1021;-90
2024/01/18 03:30:27;488524.00;1.63;842.07;87683.00;0.29;152.31;;;;;12.80;1.00;;;;;;2276799;61;1568;-88
2024/01/18 03:32:54;696807.00;2.32;1201.70;93953.00;0.31;163.13;;;;;12.90;1.00;;;;;;2301589;55;3903;-87
2024/01/18 03:35:21;116968624.00;389.90;64823492.00;88124.00;0.29;153.07;;;;;12.90;1.00;;;;;;2268717;61;929;-87
2024/01/18 03:37:48;174279.00;0.58;301.64;84201.00;0.28;146.29;;;;;13.00;1.00;;;;;;2268643;61;1523;-87
2024/01/18 03:40:16;171257.00;0.57;296.43;90091.00;0.30;156.46;;;;;13.00;1.00;;;;;;2268657;61;1915;-88
2024/01/18 03:42:43;245415.00;0.82;424.07;91287.00;0.30;158.53;;;;;12.90;1.00;;;;;;2268685;61;1150;-88
2024/01/18 03:45:10;169975.00;0.57;294.22;95240.00;0.32;165.35;;;;;12.90;1.00;;;;;;2268659;61;904;-87
2024/01/18 03:47:37;189494.00;0.63;327.84;103543.00;0.35;179.69;;;;;13.00;1.00;;;;;;2268605;61;995;-88
2024/01/18 03:50:05;171621.00;0.57;297.06;92356.00;0.31;160.38;;;;;13.10;1.00;;;;;;2271128;40;3764;-88
2024/01/18 03:52:32;212493.00;0.71;367.43;93462.00;0.31;162.29;;;;;13.10;1.00;;;;;;2268567;61;1672;-88
2024/01/18 03:54:59;286904.00;0.96;495.41;92306.00;0.31;160.29;;;;;13.20;1.00;;;;;;2268539;61;996;-86
2024/01/18 03:57:27;260982.00;0.87;450.84;94947.00;0.32;164.85;;;;;13.20;1.00;;;;;;2268467;61;1729;-89
2024/01/18 03:59:55;270150.00;0.90;466.60;90418.00;0.30;157.03;;;;;13.30;1.00;;;;;;2268559;61;2006;-88
2024/01/18 04:02:22;254827.00;0.85;440.25;85222.00;0.28;148.06;;;;;13.40;1.00;;;;;;2268510;61;1060;-88
2024/01/18 04:04:49;216490.00;0.72;374.30;92476.00;0.31;160.58;;;;;13.40;1.00;;;;;;2268472;61;1216;-89
2024/01/18 04:07:17;209541.00;0.70;362.35;88366.00;0.29;153.49;;;;;13.10;1.00;;;;;;2268485;61;951;-89
2024/01/18 04:09:44;180772.00;0.60;312.82;96467.00;0.32;167.47;;;;;12.90;1.00;;;;;;2268617;61;1031;-90
2024/01/18 04:12:11;292874.00;0.98;505.67;95949.00;0.32;166.58;;;;;12.90;1.00;;;;;;2268478;61;1412;-88
2024/01/18 04:14:43;221300.00;0.74;382.58;96901.00;0.32;168.22;;;;;13.00;1.00;;;;;;2268536;61;1068;-89
2024/01/18 04:17:11;290392.00;0.97;501.40;89611.00;0.30;155.64;;;;;13.20;1.00;;;;;;2268565;61;1927;-90
2024/01/18 04:19:38;342535.00;1.14;591.03;83273.00;0.28;144.69;;;;;13.30;1.00;;;;;;2268423;61;2011;-89
2024/01/18 04:22:05;357094.00;1.19;616.05;114923.00;0.38;199.32;;;;;13.40;1.00;;;;;;2268493;61;1410;-89
2024/01/18 04:24:32;227377.00;0.76;393.04;87579.00;0.29;152.13;;;;;13.40;1.00;;;;;;2268513;61;1048;-90
2024/01/18 04:26:59;168180.00;0.56;291.13;82487.00;0.27;143.33;;;;;13.40;1.00;;;;;;2268562;61;1002;-89
2024/01/18 04:29:28;190335.00;0.63;329.29;96357.00;0.32;167.28;;;;;13.40;1.00;;;;;;2268558;61;986;-89
2024/01/18 04:31:56;273475.00;0.91;472.32;90137.00;0.30;156.54;;;;;13.30;1.00;;;;;;2268448;61;1361;-88
2024/01/18 04:34:23;278363.00;0.93;480.72;86505.00;0.29;150.27;;;;;13.30;1.00;;;;;;2268487;61;944;-89
2024/01/18 04:36:50;185536.00;0.62;321.02;84666.00;0.28;147.10;;;;;13.30;1.00;;;;;;2268516;61;1063;-89
2024/01/18 04:39:17;273214.00;0.91;471.87;92753.00;0.31;161.06;;;;;13.30;1.00;;;;;;2268470;61;2006;-89
2024/01/18 04:41:44;207430.00;0.69;358.71;89844.00;0.30;156.04;;;;;13.50;1.00;;;;;;2268424;61;1394;-88
2024/01/18 04:44:11;254494.00;0.85;439.68;87635.00;0.29;152.22;;;;;13.30;1.00;;;;;;2268450;61;2393;-87
2024/01/18 04:46:38;170296.00;0.57;294.78;88025.00;0.29;152.90;;;;;13.20;1.00;;;;;;2268371;61;1049;-88
2024/01/18 04:49:06;272690.00;0.91;470.97;115123.00;0.38;199.67;;;;;13.30;1.00;;;;;;2268438;61;979;-89
2024/01/18 04:51:33;179448.00;0.60;310.54;78071.00;0.26;135.71;;;;;13.40;1.00;;;;;;2268344;61;1426;-88
2024/01/18 04:54:00;204794.00;0.68;354.18;91385.00;0.30;158.70;;;;;13.30;1.00;;;;;;2268469;61;1032;-88
2024/01/18 04:56:28;259771.00;0.87;448.75;92652.00;0.31;160.89;;;;;13.20;1.00;;;;;;2268446;61;995;-88
2024/01/18 04:58:56;221771.00;0.74;383.39;87028.00;0.29;151.18;;;;;13.20;1.00;;;;;;2268371;61;1137;-89
2024/01/18 05:01:23;275857.00;0.92;476.41;91329.00;0.30;158.60;;;;;13.40;1.00;;;;;;2268332;61;1936;-88
2024/01/18 05:03:49;222789.00;0.74;385.14;92805.00;0.31;161.15;;;;;13.40;1.00;;;;;;2268451;61;1534;-88
2024/01/18 05:06:18;233473.00;0.78;403.52;93455.00;0.31;162.27;;;;;13.20;1.00;;;;;;2268490;61;1044;-87
2024/01/18 05:08:45;384185.00;1.28;662.62;92002.00;0.31;159.76;;;;;13.10;1.00;;;;;;2268286;61;2059;-88
2024/01/18 05:11:12;118182632.00;393.94;66864756.00;87933.00;0.29;152.74;;;;;13.10;1.00;;;;;;2268479;61;1363;-88
2024/01/18 05:13:39;248822.00;0.83;429.93;84150.00;0.28;146.21;;;;;13.10;1.00;;;;;;2268409;61;1092;-87
2024/01/18 05:16:06;543794.00;1.81;937.26;169774.00;0.57;293.88;;;;;13.10;1.00;;;;;;2268465;61;1094;-88
2024/01/18 05:18:35;240269.00;0.80;415.21;89542.00;0.30;155.52;;;;;13.20;1.00;;;;;;2268452;61;938;-88
2024/01/18 05:21:02;264260.00;0.88;456.47;88670.00;0.30;154.01;;;;;13.20;1.00;;;;;;2268303;61;1998;-87
2024/01/18 05:23:30;178276.00;0.59;308.52;99166.00;0.33;172.13;;;;;13.30;1.00;;;;;;2268366;61;1014;-87
2024/01/18 05:25:57;214071.00;0.71;370.14;84530.00;0.28;146.86;;;;;13.00;1.00;;;;;;2268380;61;950;-87
2024/01/18 05:28:24;176122.00;0.59;304.81;93807.00;0.31;162.88;;;;;12.70;1.00;;;;;;2268302;61;1021;-86
2024/01/18 05:30:51;199144.00;0.66;344.45;87555.00;0.29;152.09;;;;;12.80;1.00;;;;;;2268312;61;1288;-89
2024/01/18 05:33:18;211165.00;0.70;365.14;89612.00;0.30;155.64;;;;;13.00;1.00;;;;;;2268384;61;1006;-87
2024/01/18 05:35:45;266559.00;0.89;460.43;88469.00;0.29;153.66;;;;;13.10;1.00;;;;;;2268287;61;987;-87
2024/01/18 05:38:12;193727.00;0.65;335.13;87926.00;0.29;152.73;;;;;13.10;1.00;;;;;;2268362;61;1078;-89
2024/01/18 05:40:40;257844.00;0.86;445.44;106508.00;0.36;184.80;;;;;13.30;1.00;;;;;;2268320;61;1921;-91
2024/01/18 05:43:07;196969.00;0.66;340.71;86726.00;0.29;150.65;;;;;13.20;1.00;;;;;;2268386;61;1060;-88
2024/01/18 05:45:34;219557.00;0.73;379.58;86140.00;0.29;149.64;;;;;13.40;1.00;;;;;;2268241;61;1052;-86
2024/01/18 05:48:01;178899.00;0.60;309.59;84475.00;0.28;146.77;;;;;13.40;1.00;;;;;;2268193;61;1031;-88
2024/01/18 05:50:28;202058.00;0.67;349.47;85764.00;0.29;148.99;;;;;13.20;1.00;;;;;;2268202;61;2162;-90
2024/01/18 05:52:54;255554.00;0.85;441.50;89812.00;0.30;155.98;;;;;13.10;1.00;;;;;;2268291;61;1087;-87
2024/01/18 05:55:21;317113.00;1.06;547.34;106521.00;0.36;184.83;;;;;13.00;1.00;;;;;;2268334;61;1146;-87
2024/01/18 05:57:49;314834.00;1.05;543.42;87914.00;0.29;152.71;;;;;13.10;1.00;;;;;;2268201;61;1099;-87
2024/01/18 06:00:17;264301.00;0.88;456.54;117658.00;0.39;204.04;;;;;13.10;1.00;;;;;;2268196;61;2005;-87
2024/01/18 06:02:44;298327.00;0.99;515.04;97804.00;0.33;169.78;;;;;13.30;1.00;;;;;;2268224;61;1068;-88
2024/01/18 06:05:11;221041.00;0.74;382.13;90801.00;0.30;157.69;;;;;13.40;1.00;;;;;;2268297;61;992;-88
2024/01/18 06:07:38;236644.00;0.79;408.98;85868.00;0.29;149.17;;;;;13.40;1.00;;;;;;2268224;61;1000;-87
2024/01/18 06:10:05;327308.00;1.09;564.86;90942.00;0.30;157.93;;;;;13.30;1.00;;;;;;2268320;61;1340;-89
2024/01/18 06:12:33;223785.00;0.75;386.86;90063.00;0.30;156.42;;;;;13.30;1.00;;;;;;2268010;61;1554;-88
2024/01/18 06:15:02;221633.00;0.74;383.15;89254.00;0.30;155.02;;;;;13.20;1.00;;;;;;2268277;61;1066;-88
2024/01/18 06:17:29;259366.00;0.86;448.06;101633.00;0.34;176.39;;;;;13.10;1.00;;;;;;2268184;61;1092;-87
2024/01/18 06:19:56;197346.00;0.66;341.36;88084.00;0.29;153.00;;;;;13.00;1.00;;;;;;2268160;61;1999;-88
2024/01/18 06:22:23;344627.00;1.15;594.63;130958.00;0.44;226.98;;;;;13.10;1.00;;;;;;2268921;61;1087;-88
2024/01/18 06:24:50;219466.00;0.73;379.42;92687.00;0.31;160.95;;;;;13.00;1.00;;;;;;2268983;61;984;-87
2024/01/18 06:27:17;221909.00;0.74;383.63;94264.00;0.31;163.67;;;;;12.90;1.00;;;;;;2268854;61;1084;-87
2024/01/18 06:29:43;172243.00;0.57;298.13;86938.00;0.29;151.02;;;;;13.00;1.00;;;;;;2268945;61;899;-88
2024/01/18 06:32:12;207041.00;0.69;358.04;93042.00;0.31;161.56;;;;;13.00;1.00;;;;;;2268929;61;1397;-87
2024/01/18 06:34:38;170398.00;0.57;294.95;85902.00;0.29;149.23;;;;;13.00;1.00;;;;;;2268932;61;1013;-88
2024/01/18 06:37:05;321840.00;1.07;555.46;93002.00;0.31;161.49;;;;;13.10;1.00;;;;;;2269019;61;908;-86
2024/01/18 06:39:32;188765.00;0.63;326.58;97982.00;0.33;170.09;;;;;12.90;1.00;;;;;;2268927;61;1005;-88
2024/01/18 06:41:59;207047.00;0.69;358.05;86431.00;0.29;150.14;;;;;13.00;1.00;;;;;;2268932;61;1963;-88
2024/01/18 06:44:26;315081.00;1.05;543.84;89087.00;0.30;154.73;;;;;13.00;1.00;;;;;;2268916;61;1091;-88
2024/01/18 06:46:52;116971920.00;389.91;64828988.00;89905.00;0.30;156.14;;;;;12.90;1.00;;;;;;2268933;61;1039;-88
2024/01/18 06:49:21;169855.00;0.57;294.02;84748.00;0.28;147.24;;;;;12.80;1.00;;;;;;2268841;61;1005;-88
2024/01/18 06:51:47;333484.00;1.11;575.47;78234.00;0.26;135.99;;;;;12.70;1.00;;;;;;2268794;61;1551;-87
2024/01/18 06:54:14;175514.00;0.59;303.76;88970.00;0.30;154.53;;;;;12.80;1.00;;;;;;2268922;61;1110;-88
2024/01/18 06:56:45;173469.00;0.58;300.24;93452.00;0.31;162.27;;;;;12.90;1.00;;;;;;2268897;61;1054;-88
2024/01/18 06:59:12;182087.00;0.61;315.08;82470.00;0.27;143.30;;;;;12.80;1.00;;;;;;2268830;61;1161;-87
2024/01/18 07:01:38;273002.00;0.91;471.51;101155.00;0.34;175.57;;;;;12.90;1.00;;;;;;2268769;61;1917;-87
2024/01/18 07:04:05;209312.00;0.70;361.95;91119.00;0.30;158.24;;;;;12.90;1.00;;;;;;2268873;61;932;-88
2024/01/18 07:06:33;318734.00;1.06;550.12;109286.00;0.36;189.60;;;;;12.90;1.00;;;;;;2268839;61;999;-89
2024/01/18 07:09:00;182661.00;0.61;316.07;90859.00;0.30;157.79;;;;;13.00;1.00;;;;;;2268878;61;1058;-88
2024/01/18 07:11:27;196535.00;0.66;339.96;89005.00;0.30;154.59;;;;;13.10;1.00;;;;;;2268797;61;1366;-88
2024/01/18 07:13:54;267201.00;0.89;461.53;102698.00;0.34;178.23;;;;;13.20;1.00;;;;;;2268882;61;915;-88
2024/01/18 07:16:21;241391.00;0.80;417.14;92637.00;0.31;160.86;;;;;13.20;1.00;;;;;;2268804;61;1774;-88
2024/01/18 07:18:48;257717.00;0.86;445.22;87423.00;0.29;151.86;;;;;13.20;1.00;;;;;;2268784;61;1031;-88
2024/01/18 07:21:15;190515.00;0.64;329.60;83097.00;0.28;144.39;;;;;13.30;1.00;;;;;;2268668;61;2008;-87
2024/01/18 07:23:43;166228.00;0.55;287.77;83846.00;0.28;145.68;;;;;13.20;1.00;;;;;;2268905;61;1035;-88
2024/01/18 07:26:10;225540.00;0.75;389.88;87148.00;0.29;151.38;;;;;13.20;1.00;;;;;;2268822;61;1040;-89
2024/01/18 07:28:37;169276.00;0.56;293.02;86793.00;0.29;150.77;;;;;13.20;1.00;;;;;;2268849;61;1088;-88
2024/01/18 07:31:04;208031.00;0.69;359.75;87692.00;0.29;152.32;;;;;13.20;1.00;;;;;;2268655;61;1328;-89
2024/01/18 07:33:31;176892.00;0.59;306.14;85521.00;0.29;148.57;;;;;13.20;1.00;;;;;;2268774;61;863;-90
2024/01/18 07:35:58;344464.00;1.15;594.35;141155.00;0.47;244.56;;;;;13.20;1.00;;;;;;2268836;61;1125;-89
2024/01/18 07:38:25;169756.00;0.57;293.85;89211.00;0.30;154.95;;;;;13.30;1.00;;;;;;2268747;61;1049;-88
2024/01/18 07:40:53;279020.00;0.93;481.85;127327.00;0.42;220.72;;;;;13.20;1.00;;;;;;2268702;61;1923;-88
2024/01/18 07:43:20;224320.00;0.75;387.78;83690.00;0.28;145.41;;;;;13.20;1.00;;;;;;2268796;61;1021;-87
2024/01/18 07:45:47;156981.00;0.52;271.84;59278.00;0.20;103.23;;;;;13.30;1.00;;;;;;2268772;61;1015;-87
2024/01/18 07:48:14;188654.00;0.63;326.39;80056.00;0.27;139.13;;;;;13.30;1.00;;;;;;2268720;61;1110;-88
2024/01/18 07:50:41;222928.00;0.74;385.38;89158.00;0.30;154.85;;;;;13.30;1.00;;;;;;2268672;61;1347;-89
2024/01/18 07:53:08;234858.00;0.78;405.91;78746.00;0.26;136.87;;;;;13.40;1.00;;;;;;2268652;61;1764;-88
2024/01/18 07:55:35;171217.00;0.57;296.36;92688.00;0.31;160.95;;;;;13.50;1.00;;;;;;2268724;61;1080;-88
2024/01/18 07:58:03;207381.00;0.69;358.63;81819.00;0.27;142.18;;;;;13.50;1.00;;;;;;2268728;61;1091;-88
2024/01/18 08:00:30;208692.00;0.70;360.88;91612.00;0.31;159.09;;;;;13.60;1.00;;;;;;2268706;61;1927;-88
2024/01/18 08:02:57;167813.00;0.56;290.50;89240.00;0.30;155.00;;;;;13.50;1.00;;;;;;2268726;61;1060;-87
2024/01/18 08:05:24;167502.00;0.56;289.96;76685.00;0.26;133.31;;;;;13.50;1.00;;;;;;2268686;61;1096;-88
2024/01/18 08:07:51;189685.00;0.63;328.17;84944.00;0.28;147.58;;;;;13.40;1.00;;;;;;2268590;61;1697;-88
2024/01/18 08:10:18;172960.00;0.58;299.37;91546.00;0.31;158.98;;;;;13.50;1.00;;;;;;2268666;61;1246;-89
2024/01/18 08:12:46;173107.00;0.58;299.62;90358.00;0.30;156.93;;;;;13.30;1.00;;;;;;2268616;61;1599;-90
2024/01/18 08:15:14;238212.00;0.79;411.68;86856.00;0.29;150.88;;;;;13.50;1.00;;;;;;2268671;61;1039;-88
2024/01/18 08:17:43;192316.00;0.64;332.70;88244.00;0.29;153.28;;;;;13.50;1.00;;;;;;2268719;61;928;-87
2024/01/18 08:20:12;328116.00;1.09;566.25;124758.00;0.42;216.29;;;;;13.10;1.00;;;;;;2268608;61;1269;-87
2024/01/18 08:22:39;197811.00;0.66;342.16;96133.00;0.32;166.90;;;;;12.90;1.00;;;;;;2268618;61;2036;-88
2024/01/18 08:25:07;196883.00;0.66;340.56;90051.00;0.30;156.40;;;;;12.90;1.00;;;;;;2268570;61;1075;-88
2024/01/18 08:27:34;174612.00;0.58;302.21;92303.00;0.31;160.28;;;;;12.90;1.00;;;;;;2268574;61;1720;-88
2024/01/18 08:30:01;199719.00;0.67;345.44;88506.00;0.30;153.73;;;;;12.90;1.00;;;;;;2268529;61;1367;-88
2024/01/18 08:32:33;251327.00;0.84;434.23;91394.00;0.30;158.71;;;;;13.00;1.00;;;;;;2268658;61;946;-87
2024/01/18 08:34:59;243493.00;0.81;420.76;91495.00;0.30;158.89;;;;;13.10;1.00;;;;;;2268502;61;1646;-87
2024/01/18 08:37:26;248142.00;0.83;428.76;91030.00;0.30;158.09;;;;;13.00;1.00;;;;;;2268544;61;1001;-89
2024/01/18 08:39:53;232748.00;0.78;402.28;77275.00;0.26;134.33;;;;;12.80;1.00;;;;;;2268522;61;1304;-87
2024/01/18 08:42:20;217702.00;0.73;376.39;91614.00;0.31;159.09;;;;;13.00;1.00;;;;;;2268534;61;1932;-89
2024/01/18 08:44:47;211825.00;0.71;366.28;88297.00;0.29;153.37;;;;;13.10;1.00;;;;;;2268318;61;1022;-88
2024/01/18 08:47:14;196815.00;0.66;340.44;90738.00;0.30;157.58;;;;;13.10;1.00;;;;;;2268551;61;1132;-89
2024/01/18 08:49:42;184060.00;0.61;318.48;82517.00;0.28;143.38;;;;;13.20;1.00;;;;;;2268513;61;1025;-89
2024/01/18 08:52:09;269958.00;0.90;466.27;86486.00;0.29;150.24;;;;;13.20;1.00;;;;;;2268536;61;1432;-89
2024/01/18 08:54:36;209102.00;0.70;361.59;74350.00;0.25;129.28;;;;;13.40;1.00;;;;;;2268527;61;1029;-90
2024/01/18 08:57:03;263324.00;0.88;454.86;96197.00;0.32;167.01;;;;;13.30;1.00;;;;;;2268542;61;1087;-88
2024/01/18 08:59:30;248426.00;0.83;429.24;88719.00;0.30;154.10;;;;;13.20;1.00;;;;;;2268400;61;1040;-87
2024/01/18 09:01:57;310590.00;1.04;536.12;87547.00;0.29;152.07;;;;;13.20;1.00;;;;;;2268461;61;1920;-87
2024/01/18 09:04:24;198002.00;0.66;342.48;72955.00;0.24;126.87;;;;;13.20;1.00;;;;;;2268151;61;1079;-88
2024/01/18 09:06:56;242241.00;0.81;418.61;87511.00;0.29;152.01;;;;;13.20;1.00;;;;;;2268442;61;1092;-87
2024/01/18 09:09:23;191093.00;0.64;330.59;86883.00;0.29;150.93;;;;;13.10;1.00;;;;;;2268471;61;1116;-90
2024/01/18 09:11:50;268985.00;0.90;464.60;83120.00;0.28;144.43;;;;;13.10;1.00;;;;;;2268375;61;1603;-89
2024/01/18 09:14:17;234433.00;0.78;405.17;92798.00;0.31;161.14;;;;;13.10;1.00;;;;;;2268402;61;1585;-87
2024/01/18 09:16:44;180195.00;0.60;311.83;76534.00;0.26;133.05;;;;;12.90;1.00;;;;;;2268453;61;938;-88
2024/01/18 09:19:10;289625.00;0.97;500.08;86503.00;0.29;150.27;;;;;13.00;1.00;;;;;;2268465;61;2318;-88
2024/01/18 09:21:41;243524.00;0.81;420.81;85198.00;0.28;148.02;;;;;13.00;1.00;;;;;;2268318;61;2041;-87
2024/01/18 09:24:10;266176.00;0.89;459.77;90063.00;0.30;156.42;;;;;13.20;1.00;;;;;;2268448;61;1088;-88
2024/01/18 09:26:37;356122.00;1.19;614.38;88499.00;0.29;153.72;;;;;13.20;1.00;;;;;;2268397;61;1039;-87
2024/01/18 09:29:04;332719.00;1.11;574.16;84159.00;0.28;146.22;;;;;13.30;1.00;;;;;;2268431;61;992;-88
2024/01/18 09:31:31;453194.00;1.51;781.28;88504.00;0.30;153.72;;;;;13.40;1.00;;;;;;2268239;61;1388;-87
2024/01/18 09:33:58;377803.00;1.26;651.65;82955.00;0.28;144.14;;;;;13.50;1.00;;;;;;2268396;61;1763;-89
2024/01/18 09:36:25;372102.00;1.24;641.85;94217.00;0.31;163.59;;;;;13.60;1.00;;;;;;2268292;61;2214;-89
2024/01/18 09:38:52;334399.00;1.11;577.05;93543.00;0.31;162.43;;;;;13.60;1.00;;;;;;2268325;61;1476;-89
2024/01/18 09:41:21;277131.00;0.92;478.60;88651.00;0.30;153.98;;;;;13.90;1.00;;;;;;2268277;61;2014;-90
2024/01/18 09:43:54;304798.00;1.02;526.17;89338.00;0.30;155.16;;;;;14.10;1.00;;;;;;2268434;61;993;-89
2024/01/18 09:46:25;366792.00;1.22;632.72;99247.00;0.33;172.27;;;;;14.20;1.00;;;;;;2268394;61;1119;-88
2024/01/18 09:48:52;458922.00;1.53;791.13;92138.00;0.31;160.00;;;;;14.30;1.00;;;;;;2268370;61;1145;-89
2024/01/18 09:51:23;395824.00;1.32;682.63;85690.00;0.29;148.86;;;;;14.40;1.00;;;;;;2268223;61;1636;-88
2024/01/18 09:53:54;371658.00;1.24;641.09;86501.00;0.29;150.27;;;;;14.30;1.00;;;;;;2268207;61;1547;-90
2024/01/18 09:56:25;431272.00;1.44;743.57;87707.00;0.29;152.35;;;;;14.40;1.00;;;;;;2268346;61;1400;-89
2024/01/18 09:58:52;610191.00;2.03;1051.82;81906.00;0.27;142.33;;;;;14.50;1.00;;;;;;2271230;55;3770;-88
2024/01/18 10:06:20;885802.00;2.95;1531.20;108999.00;0.36;189.10;;;;;10.20;1.00;;;;;;2295959;40;3524;-89
2024/01/18 10:26:21;787882.00;2.63;1360.00;0.00;0.00;0.62;;;;;5.40;14.50;;;;;;2273976;61;1237;-89
2024/01/18 10:28:49;513500.00;1.71;885.07;0.00;0.00;0.62;;;;;5.20;14.40;;;;;;2272052;61;1530;-89
2024/01/18 10:33:47;854506.00;2.85;1476.35;29754.00;0.10;52.16;;;;;5.20;15.40;;;;;;2273878;61;1962;-87
2024/01/18 10:36:14;672627.00;2.24;1159.80;0.00;0.00;0.62;;;;;5.00;13.70;;;;;;2275650;55;3786;-88
2024/01/18 10:38:42;939668.00;3.13;1625.90;21035.00;0.07;37.06;;;;;4.90;15.70;;;;;;2276076;61;1168;-87
2024/01/18 10:41:09;499790.00;1.67;861.46;0.00;0.00;0.62;;;;;5.00;12.70;;;;;;2276029;61;2001;-88
2024/01/18 10:43:39;576326.00;1.92;993.36;101160.00;0.34;175.57;;;;;4.30;12.40;;;;;;2276148;61;1013;-87
2024/01/18 10:46:06;460689.00;1.54;794.17;97327.00;0.32;168.96;;;;;4.00;14.90;;;;;;2276203;61;1011;-87
2024/01/18 10:48:34;396441.00;1.32;683.69;87190.00;0.29;151.46;;;;;4.30;16.20;;;;;;2276193;61;1487;-87
2024/01/18 10:51:01;465674.00;1.55;802.75;97844.00;0.33;169.85;;;;;4.40;14.20;;;;;;2276434;61;1355;-87
2024/01/18 10:53:32;492780.00;1.64;849.39;90248.00;0.30;156.74;;;;;4.20;13.70;;;;;;2276415;61;1137;-88
2024/01/18 10:55:59;448531.00;1.50;773.26;100425.00;0.33;174.31;;;;;4.10;15.10;;;;;;2276397;61;1186;-87
2024/01/18 10:58:26;458467.00;1.53;790.35;95660.00;0.32;166.08;;;;;4.10;14.70;;;;;;2276314;61;1115;-89
2024/01/18 11:00:56;369812.00;1.23;637.91;92956.00;0.31;161.41;;;;;3.90;15.90;;;;;;2276222;61;1329;-88
2024/01/18 11:03:24;494992.00;1.65;853.20;97214.00;0.32;168.76;;;;;3.90;14.70;;;;;;2276288;61;1946;-86
2024/01/18 11:05:51;391009.00;1.30;674.35;94669.00;0.32;164.37;;;;;4.20;13.40;;;;;;2276370;61;1103;-89
2024/01/18 11:08:19;443947.00;1.48;765.37;95078.00;0.32;165.08;;;;;3.90;14.10;;;;;;2277067;61;929;-87
2024/01/18 11:10:47;406518.00;1.36;701.01;95173.00;0.32;165.24;;;;;4.00;14.10;;;;;;2277164;61;1462;-88
2024/01/18 11:13:16;467972.00;1.56;806.70;98241.00;0.33;170.54;;;;;4.10;15.50;;;;;;2276971;61;1032;-87
2024/01/18 11:15:44;367458.00;1.22;633.87;98415.00;0.33;170.84;;;;;4.30;14.20;;;;;;2276985;61;1110;-88
2024/01/18 11:18:14;118595880.00;395.32;67569272.00;92720.00;0.31;161.00;;;;;4.50;13.90;;;;;;2276895;61;1020;-88
2024/01/18 11:21:08;388890.00;1.30;670.71;94135.00;0.31;163.45;;;;;5.10;11.40;;;;;;2276909;61;1523;-87
2024/01/18 11:23:36;373359.00;1.24;644.01;0.00;0.00;0.62;;;;;4.70;8.90;;;;;;2277002;61;1078;-89
2024/01/18 11:26:05;341957.00;1.14;590.04;0.00;0.00;0.62;;;;;4.50;10.60;;;;;;2277036;61;1122;-87
2024/01/18 11:28:32;389802.00;1.30;672.27;29023.00;0.10;50.89;;;;;4.50;11.70;;;;;;2277039;61;1599;-86
2024/01/18 11:31:00;454533.00;1.52;783.58;0.00;0.00;0.62;;;;;4.80;9.20;;;;;;2276958;61;1276;-87
2024/01/18 11:33:29;440992.00;1.47;760.29;0.00;0.00;0.62;;;;;5.40;8.60;;;;;;2276878;61;1897;-87
2024/01/18 11:35:57;182277.00;0.61;315.41;0.00;0.00;0.62;;;;;5.10;5.80;;;;;;2276956;61;1496;-87
2024/01/18 11:38:26;340540.00;1.14;587.60;0.00;0.00;0.62;;;;;5.20;7.60;;;;;;2277092;61;1011;-88
2024/01/18 11:40:57;315209.00;1.05;544.06;0.00;0.00;0.62;;;;;5.40;5.90;;;;;;2276955;61;2395;-88
2024/01/18 11:43:25;577332.00;1.92;995.10;0.00;0.00;0.62;;;;;5.10;4.50;;;;;;2276827;61;1942;-89
2024/01/18 11:45:55;561850.00;1.87;968.39;89991.00;0.30;156.29;;;;;4.90;5.60;;;;;;2276944;61;1110;-87
2024/01/18 11:48:25;481581.00;1.61;830.12;100033.00;0.33;173.63;;;;;4.90;6.20;;;;;;2276886;61;1027;-86
2024/01/18 11:50:53;372159.00;1.24;641.95;101806.00;0.34;176.69;;;;;5.00;5.30;;;;;;2276846;61;1718;-86
2024/01/18 11:53:20;280733.00;0.94;484.80;95430.00;0.32;165.68;;;;;5.30;5.60;;;;;;2276783;61;1679;-85
2024/01/18 11:55:51;538131.00;1.79;927.50;208474.00;0.69;360.51;;;;;5.80;3.00;;;;;;2276933;61;1271;-86
2024/01/18 11:58:19;352779.00;1.18;608.64;101173.00;0.34;175.60;;;;;6.00;1.10;;;;;;2276906;61;1049;-88
2024/01/18 12:00:46;488438.00;1.63;841.92;95755.00;0.32;166.24;;;;;6.00;1.00;;;;;;2276823;61;1388;-86
2024/01/18 12:03:13;350203.00;1.17;604.21;94870.00;0.32;164.72;;;;;6.00;1.00;;;;;;2276803;61;1923;-87
2024/01/18 12:05:40;117274008.00;390.91;65333000.00;94569.00;0.32;164.20;;;;;6.10;1.50;;;;;;2276808;61;1093;-86
2024/01/18 12:08:10;307650.00;1.03;531.07;93977.00;0.31;163.17;;;;;5.70;2.40;;;;;;2276823;61;1143;-86
2024/01/18 12:10:37;305413.00;1.02;527.22;108443.00;0.36;188.14;;;;;5.70;2.50;;;;;;2276646;61;1380;-86
2024/01/18 12:13:05;266018.00;0.89;459.50;90301.00;0.30;156.83;;;;;6.00;1.00;;;;;;2276771;61;1212;-87
2024/01/18 12:15:32;287304.00;0.96;496.09;99319.00;0.33;172.40;;;;;5.80;1.00;;;;;;2276743;61;964;-85
2024/01/18 12:17:59;265860.00;0.89;459.23;96429.00;0.32;167.41;;;;;5.70;1.00;;;;;;2276540;61;1146;-87
2024/01/18 12:20:26;350230.00;1.17;604.26;98302.00;0.33;170.64;;;;;5.80;1.40;;;;;;2276674;61;1304;-87
2024/01/18 12:22:53;396632.00;1.32;684.02;92663.00;0.31;160.91;;;;;6.20;1.80;;;;;;2276592;61;1986;-87
2024/01/18 12:25:21;318085.00;1.06;549.01;100931.00;0.34;175.18;;;;;6.50;1.00;;;;;;2276719;61;1009;-86
2024/01/18 12:27:48;320634.00;1.07;553.39;94059.00;0.31;163.32;;;;;6.60;1.00;;;;;;2276767;61;981;-85
2024/01/18 12:30:16;259931.00;0.87;449.03;95325.00;0.32;165.50;;;;;6.40;1.00;;;;;;2276671;61;1368;-87
2024/01/18 12:32:43;303434.00;1.01;523.82;103031.00;0.34;178.80;;;;;6.30;1.00;;;;;;2276580;61;1100;-86
2024/01/18 12:35:10;343420.00;1.14;592.55;114284.00;0.38;198.22;;;;;6.20;1.00;;;;;;2276486;61;1055;-84
2024/01/18 12:37:39;178390.00;0.59;308.72;90402.00;0.30;157.00;;;;;5.90;1.00;;;;;;2276558;61;1669;-86
2024/01/18 12:40:10;291887.00;0.97;503.97;91087.00;0.30;158.18;;;;;5.40;1.50;;;;;;2276610;61;1262;-86
2024/01/18 12:42:39;296646.00;0.99;512.15;93327.00;0.31;162.05;;;;;5.00;4.10;;;;;;2276572;61;2010;-86